createdAt,value
2022-10-23T00:05:35.276Z,1.7
2022-10-23T00:11:19.581Z,1.6
2022-10-23T00:17:02.831Z,1.4
2022-10-23T00:22:46.027Z,1.6
2022-10-23T00:28:29.171Z,1.4
2022-10-23T00:34:12.387Z,1.5
2022-10-23T00:39:55.650Z,1.6
2022-10-23T00:45:38.851Z,1.5
2022-10-23T00:51:23.238Z,1.4
2022-10-23T00:57:07.380Z,1.6
2022-10-23T01:02:50.554Z,1.6
2022-10-23T01:08:36.619Z,1.6
2022-10-23T01:14:25.086Z,1.5
2022-10-23T01:20:22.916Z,1.5
2022-10-23T01:26:27.182Z,1.5
2022-10-23T01:32:13.454Z,1.5
2022-10-23T01:38:02.741Z,1.5
2022-10-23T01:43:47.954Z,1.4
2022-10-23T01:49:31.824Z,1.4
2022-10-23T01:55:16.026Z,1.4
2022-10-23T02:01:02.896Z,1.2
2022-10-23T02:06:46.294Z,1.3
2022-10-23T02:12:34.987Z,1.4
2022-10-23T02:18:23.827Z,1.4
2022-10-23T02:24:09.375Z,1.4
2022-10-23T02:29:55.058Z,1.3
2022-10-23T02:35:38.306Z,1.3
2022-10-23T02:41:26.909Z,1.2
2022-10-23T02:47:17.249Z,1.2
2022-10-23T02:53:06.352Z,1.2
2022-10-23T02:58:52.703Z,1.3
2022-10-23T03:04:38.738Z,1.1
2022-10-23T03:10:22.151Z,1.2
2022-10-23T03:16:05.607Z,1.2
2022-10-23T03:21:48.908Z,1.4
2022-10-23T03:27:33.176Z,1.2
2022-10-23T03:33:16.503Z,1.2
2022-10-23T03:38:59.744Z,1.1
2022-10-23T03:44:43.295Z,1.3
2022-10-23T03:50:26.657Z,1.2
2022-10-23T03:56:10.299Z,1.2
2022-10-23T04:01:54.298Z,1.2
2022-10-23T04:07:38.074Z,1.1
2022-10-23T04:13:21.484Z,1.2
2022-10-23T04:19:04.839Z,1.2
2022-10-23T04:24:48.021Z,1.3
2022-10-23T04:30:32.639Z,1
2022-10-23T04:36:15.782Z,1.1
2022-10-23T04:41:58.895Z,1.3
2022-10-23T04:47:42.115Z,1.2
2022-10-23T04:53:25.563Z,1.2
2022-10-23T04:59:08.869Z,1.2
2022-10-23T05:04:52.394Z,1.2
2022-10-23T05:10:36.553Z,1.3
2022-10-23T05:16:25.531Z,1.3
2022-10-23T05:22:09.351Z,1.2
2022-10-23T05:27:53.832Z,1.4
2022-10-23T05:33:37.714Z,1.1
2022-10-23T05:39:21.478Z,1.2
2022-10-23T05:45:04.915Z,1.1
2022-10-23T05:50:47.949Z,1.4
2022-10-23T05:56:31.312Z,1.1
2022-10-23T06:02:14.725Z,1.2
2022-10-23T06:08:02.424Z,1.4
2022-10-23T06:13:46.021Z,1.3
2022-10-23T06:19:29.339Z,1.3
2022-10-23T06:25:13.287Z,1.4
2022-10-23T06:30:56.615Z,1.2
2022-10-23T06:36:39.920Z,1.3
2022-10-23T06:42:23.364Z,1.3
2022-10-23T06:48:07.182Z,1.1
2022-10-23T06:53:50.350Z,1.3
2022-10-23T06:59:33.638Z,1.3
2022-10-23T07:05:17.126Z,1.3
2022-10-23T07:11:04.042Z,1.4
2022-10-23T07:16:47.345Z,1.3
2022-10-23T07:22:30.944Z,1.3
2022-10-23T07:28:14.218Z,1.4
2022-10-23T07:33:58.621Z,1.4
2022-10-23T07:39:42.806Z,1.4
2022-10-23T07:45:26.019Z,1.5
2022-10-23T07:51:10.414Z,1.3
2022-10-23T07:56:53.684Z,1.4
2022-10-23T08:02:36.990Z,1.4
2022-10-23T08:08:21.351Z,1.2
2022-10-23T08:14:05.685Z,1.6
2022-10-23T08:19:49.678Z,1.4
2022-10-23T08:31:17.217Z,1.7
2022-10-23T08:37:00.263Z,1.4
2022-10-23T08:42:45.145Z,1.5
2022-10-23T08:48:32.280Z,1.5
2022-10-23T08:54:19.181Z,1.8
2022-10-23T09:00:06.157Z,1.5
2022-10-23T09:05:56.185Z,1.7
2022-10-23T09:11:44.002Z,1.5
2022-10-23T09:17:29.313Z,1.5
2022-10-23T09:23:16.039Z,1.6
2022-10-23T09:29:07.203Z,1.4
2022-10-23T09:34:56.954Z,1.4
2022-10-23T09:40:43.209Z,1.6
2022-10-23T09:46:32.497Z,1.6
2022-10-23T09:52:26.234Z,2
2022-10-23T09:58:21.009Z,1.7
2022-10-23T10:04:04.296Z,1.7
2022-10-23T10:09:47.738Z,1.8
2022-10-23T10:15:34.223Z,1.8
2022-10-23T10:21:22.608Z,1.9
2022-10-23T10:27:09.595Z,1.9
2022-10-23T10:32:55.940Z,1.8
2022-10-23T10:38:44.998Z,2
2022-10-23T10:44:35.505Z,1.8
2022-10-23T10:50:23.363Z,1.8
2022-10-23T11:01:58.674Z,2
2022-10-23T11:07:44.898Z,1.7
2022-10-23T11:13:31.850Z,1.7
2022-10-23T11:19:21.343Z,1.8
2022-10-23T11:25:10.110Z,1.8
2022-10-23T11:31:00.323Z,2
2022-10-23T11:36:48.347Z,1.9
2022-10-23T11:42:43.542Z,2
2022-10-23T11:48:32.294Z,2.5
2022-10-23T11:54:26.809Z,2.3
2022-10-23T12:00:24.021Z,2.1
2022-10-23T12:06:08.435Z,2.3
2022-10-23T12:11:57.170Z,2.5
2022-10-23T12:17:41.348Z,2.3
2022-10-23T12:23:49.082Z,2.4
2022-10-23T12:29:41.934Z,2.5
2022-10-23T12:35:31.935Z,2.4
2022-10-23T12:41:16.942Z,2.3
2022-10-23T12:47:02.392Z,2.3
2022-10-23T12:52:50.694Z,2.6
2022-10-23T12:58:34.987Z,2.8
2022-10-23T13:04:23.530Z,2.8
2022-10-23T13:10:07.445Z,2.6
2022-10-23T13:15:51.041Z,2.7
2022-10-23T13:21:34.465Z,2.4
2022-10-23T13:27:28.604Z,2.2
2022-10-23T13:33:23.618Z,2.4
2022-10-23T13:39:15.377Z,2.1
2022-10-23T13:44:58.812Z,2.4
2022-10-23T13:50:42.161Z,2.4
2022-10-23T13:56:26.293Z,2.4
2022-10-23T14:02:16.023Z,2.3
2022-10-23T14:07:59.610Z,2.4
2022-10-23T14:13:42.661Z,2.9
2022-10-23T14:19:26.052Z,2.8
2022-10-23T14:25:09.930Z,2.4
2022-10-23T14:30:54.139Z,2.8
2022-10-23T14:36:56.828Z,2.5
2022-10-23T14:42:40.750Z,2.5
2022-10-23T14:48:24.046Z,2.7
2022-10-23T14:54:08.204Z,2.7
2022-10-23T14:59:51.835Z,2.4
2022-10-23T15:05:35.155Z,2.9
2022-10-23T15:11:18.655Z,2.4
2022-10-23T15:17:01.943Z,2.4
2022-10-23T15:22:46.759Z,2.5
2022-10-23T15:28:31.383Z,2.3
2022-10-23T15:34:16.202Z,2.6
2022-10-23T15:40:03.704Z,2.7
2022-10-23T15:45:47.240Z,2.6
2022-10-23T15:51:30.597Z,2.9
2022-10-23T15:57:14.467Z,2.6
2022-10-23T16:02:57.801Z,2.4
2022-10-23T16:08:41.702Z,2.5
2022-10-23T16:14:24.962Z,2.4
2022-10-23T16:20:08.687Z,2.8
2022-10-23T16:25:51.882Z,2.6
2022-10-23T16:31:35.342Z,2.4
2022-10-23T16:37:18.834Z,2.6
2022-10-23T16:43:02.117Z,2.6
2022-10-23T16:48:45.433Z,2.5
2022-10-23T16:54:28.884Z,2.7
2022-10-23T17:00:12.919Z,2.7
2022-10-23T17:06:07.300Z,2.8
2022-10-23T17:11:54.698Z,2.5
2022-10-23T17:17:38.039Z,2.6
2022-10-23T17:23:21.346Z,2.5
2022-10-23T17:29:06.073Z,2.4
2022-10-23T17:34:49.443Z,2.5
2022-10-23T17:40:33.167Z,2.4
2022-10-23T17:46:17.196Z,2.2
2022-10-23T17:52:00.544Z,2.3
2022-10-23T17:57:45.010Z,2.6
2022-10-23T18:03:28.859Z,2.5
2022-10-23T18:09:12.491Z,2.3
2022-10-23T18:14:55.633Z,2.2
2022-10-23T18:20:40.077Z,2.3
2022-10-23T18:26:24.287Z,2.4
2022-10-23T18:32:07.569Z,2.4
2022-10-23T18:37:50.678Z,2.6
2022-10-23T18:43:44.601Z,2.5
2022-10-23T18:49:29.128Z,2.6
2022-10-23T18:55:14.765Z,2.6
2022-10-23T19:00:59.117Z,2.7
2022-10-23T19:06:42.933Z,2.8
2022-10-23T19:12:26.675Z,2.7
2022-10-23T19:18:11.738Z,2.7
2022-10-23T19:23:55.110Z,2.7
2022-10-23T19:29:39.482Z,2.8
2022-10-23T19:35:23.239Z,2.5
2022-10-23T19:41:06.897Z,2.7
2022-10-23T19:46:50.447Z,2.5
2022-10-23T19:52:34.754Z,3.1
2022-10-23T19:58:18.194Z,3
2022-10-23T20:04:01.518Z,3.2
2022-10-23T20:09:45.074Z,3.2
2022-10-23T20:15:28.447Z,3.2
2022-10-23T20:21:11.801Z,3.3
2022-10-23T20:26:56.775Z,3.4
2022-10-23T20:32:39.922Z,3.6
2022-10-23T20:38:25.462Z,3.2
2022-10-23T20:44:09.774Z,3.5
2022-10-23T20:49:54.500Z,3.4
2022-10-23T20:55:41.518Z,3.6
2022-10-23T21:01:25.144Z,3.5
2022-10-23T21:07:12.917Z,3.3
2022-10-23T21:12:56.040Z,3.4
2022-10-23T21:18:48.047Z,3.6
2022-10-23T21:24:31.183Z,3.5
2022-10-23T21:30:15.293Z,3.2
2022-10-23T21:36:13.385Z,3
2022-10-23T21:41:56.432Z,3.4
2022-10-23T21:47:39.714Z,3.1
2022-10-23T21:53:22.797Z,3
2022-10-23T22:04:50.267Z,2.8
2022-10-23T22:10:35.522Z,2.7
2022-10-23T22:16:19.055Z,2.5
2022-10-23T22:22:02.192Z,2.6
2022-10-23T22:27:46.182Z,2.5
2022-10-23T22:33:29.837Z,2.3
2022-10-23T22:39:13.331Z,2.1
2022-10-23T22:44:56.459Z,2.2
2022-10-23T22:50:39.605Z,2.2
2022-10-23T22:56:24.186Z,2.1
2022-10-23T23:02:07.500Z,2.1
2022-10-23T23:07:50.694Z,2.1
2022-10-23T23:13:33.858Z,2.6
2022-10-23T23:19:20.570Z,2.5
2022-10-23T23:25:03.714Z,2.8
2022-10-23T23:30:48.303Z,2.6
2022-10-23T23:36:32.825Z,2.4
2022-10-23T23:42:16.134Z,3.1
2022-10-23T23:48:00.454Z,2.7
2022-10-23T23:53:43.673Z,2.3
2022-10-23T23:59:27.271Z,2.6
